createdAt,value
2022-11-19T00:01:22.514Z,85.22
2022-11-19T00:03:52.630Z,84.64
2022-11-19T00:06:22.601Z,83.68
2022-11-19T00:08:49.418Z,84.80
2022-11-19T00:11:41.828Z,85.01
2022-11-19T00:14:13.436Z,85.39
2022-11-19T00:16:40.787Z,85.78
2022-11-19T00:19:07.592Z,85.68
2022-11-19T00:21:34.108Z,86.00
2022-11-19T00:24:00.768Z,86.42
2022-11-19T00:26:27.618Z,86.11
2022-11-19T00:28:55.000Z,85.68
2022-11-19T00:31:21.757Z,85.36
2022-11-19T00:33:50.509Z,86.11
2022-11-19T00:36:17.632Z,85.53
2022-11-19T00:38:44.136Z,85.99
2022-11-19T00:41:11.014Z,85.75
2022-11-19T00:43:46.858Z,85.40
2022-11-19T00:46:27.937Z,86.41
2022-11-19T00:48:56.152Z,86.14
2022-11-19T00:51:24.016Z,86.09
2022-11-19T00:53:51.003Z,85.64
2022-11-19T00:56:19.879Z,85.35
2022-11-19T00:58:48.003Z,85.23
2022-11-19T01:01:16.225Z,85.38
2022-11-19T01:03:45.624Z,85.24
2022-11-19T01:06:17.798Z,84.31
2022-11-19T01:08:46.095Z,84.47
2022-11-19T01:11:22.062Z,84.67
2022-11-19T01:13:49.067Z,84.87
2022-11-19T01:16:25.335Z,85.45
2022-11-19T01:18:52.809Z,85.27
2022-11-19T01:21:23.793Z,86.04
2022-11-19T01:23:50.765Z,85.31
2022-11-19T01:26:17.894Z,85.05
2022-11-19T01:28:45.016Z,85.00
2022-11-19T01:31:23.881Z,84.83
2022-11-19T01:33:50.700Z,84.61
2022-11-19T01:36:23.413Z,84.31
2022-11-19T01:38:51.079Z,84.61
2022-11-19T01:41:30.271Z,84.45
2022-11-19T01:43:58.964Z,84.53
2022-11-19T01:46:28.287Z,84.40
2022-11-19T01:49:01.611Z,84.49
2022-11-19T01:51:46.583Z,85.02
2022-11-19T01:54:21.623Z,84.48
2022-11-19T01:56:48.148Z,84.53
2022-11-19T01:59:18.037Z,84.42
2022-11-19T02:01:46.422Z,84.04
2022-11-19T02:04:14.991Z,84.04
2022-11-19T02:06:42.430Z,84.41
2022-11-19T02:09:08.934Z,85.41
2022-11-19T02:11:53.762Z,85.38
2022-11-19T02:14:42.256Z,86.54
2022-11-19T02:17:20.739Z,86.12
2022-11-19T02:20:33.137Z,86.17
2022-11-19T02:23:17.964Z,86.03
2022-11-19T02:25:47.343Z,86.50
2022-11-19T02:28:34.771Z,86.37
2022-11-19T02:31:24.003Z,86.41
2022-11-19T02:33:55.608Z,86.71
2022-11-19T02:36:26.524Z,87.16
2022-11-19T02:39:17.449Z,86.16
2022-11-19T02:41:52.667Z,85.93
2022-11-19T02:44:43.987Z,85.99
2022-11-19T02:47:15.988Z,86.75
2022-11-19T02:49:47.093Z,86.66
2022-11-19T02:52:18.005Z,86.58
2022-11-19T02:54:44.520Z,86.36
2022-11-19T02:57:13.091Z,86.68
2022-11-19T03:00:05.868Z,87.13
2022-11-19T03:02:55.675Z,87.09
2022-11-19T03:05:27.213Z,86.44
2022-11-19T03:07:53.853Z,86.57
2022-11-19T03:10:23.494Z,86.21
2022-11-19T03:12:55.068Z,86.32
2022-11-19T03:16:05.708Z,85.77
2022-11-19T03:18:39.216Z,86.23
2022-11-19T03:21:19.254Z,86.29
2022-11-19T03:24:00.918Z,85.41
2022-11-19T03:26:46.270Z,86.00
2022-11-19T03:29:14.736Z,85.77
2022-11-19T03:31:47.724Z,85.77
2022-11-19T03:34:17.781Z,85.20
2022-11-19T03:36:47.491Z,84.89
2022-11-19T03:39:17.610Z,84.88
2022-11-19T03:41:48.256Z,85.71
2022-11-19T03:44:33.085Z,85.36
2022-11-19T03:47:07.206Z,85.37
2022-11-19T03:49:37.815Z,86.44
2022-11-19T03:52:12.714Z,86.19
2022-11-19T03:54:40.297Z,86.35
2022-11-19T03:57:09.304Z,86.78
2022-11-19T03:59:35.930Z,86.35
2022-11-19T04:02:08.118Z,87.02
2022-11-19T04:04:37.600Z,86.93
2022-11-19T04:07:11.070Z,86.93
2022-11-19T04:09:39.361Z,86.94
2022-11-19T04:12:08.032Z,86.94
2022-11-19T04:14:34.504Z,87.03
2022-11-19T04:17:01.111Z,87.30
2022-11-19T04:19:27.533Z,86.42
2022-11-19T04:21:53.981Z,86.79
2022-11-19T04:24:20.503Z,86.54
2022-11-19T04:26:46.986Z,86.22
2022-11-19T04:29:13.521Z,86.28
2022-11-19T04:31:40.016Z,86.45
2022-11-19T04:34:06.633Z,86.46
2022-11-19T04:36:33.163Z,86.12
2022-11-19T04:38:59.701Z,86.11
2022-11-19T04:41:26.348Z,86.18
2022-11-19T04:43:52.803Z,86.07
2022-11-19T04:46:19.225Z,85.89
2022-11-19T04:48:45.653Z,85.79
2022-11-19T04:51:12.140Z,86.17
2022-11-19T04:53:38.688Z,86.40
2022-11-19T04:56:05.882Z,86.38
2022-11-19T04:58:32.336Z,86.56
2022-11-19T05:00:58.914Z,87.19
2022-11-19T05:03:25.374Z,87.40
2022-11-19T05:05:51.937Z,86.97
2022-11-19T05:08:18.553Z,86.87
2022-11-19T05:10:45.273Z,86.28
2022-11-19T05:13:11.710Z,87.11
2022-11-19T05:15:38.193Z,87.09
2022-11-19T05:18:04.900Z,86.57
2022-11-19T05:20:31.352Z,86.55
2022-11-19T05:22:57.987Z,86.70
2022-11-19T05:25:24.548Z,86.60
2022-11-19T05:27:50.929Z,86.95
2022-11-19T05:30:17.562Z,86.78
2022-11-19T05:32:43.990Z,86.45
2022-11-19T05:35:10.589Z,86.68
2022-11-19T05:37:36.995Z,86.64
2022-11-19T05:40:03.959Z,86.91
2022-11-19T05:42:30.458Z,86.60
2022-11-19T05:44:56.893Z,86.98
2022-11-19T05:47:23.490Z,86.57
2022-11-19T05:49:49.991Z,86.68
2022-11-19T05:52:16.410Z,87.10
2022-11-19T05:54:42.886Z,86.89
2022-11-19T05:57:09.288Z,86.66
2022-11-19T05:59:42.253Z,86.59
2022-11-19T06:02:10.267Z,86.65
2022-11-19T06:04:36.682Z,86.17
2022-11-19T06:07:03.135Z,86.82
2022-11-19T06:09:30.896Z,87.09
2022-11-19T06:11:57.464Z,87.44
2022-11-19T06:14:25.402Z,87.18
2022-11-19T06:16:54.426Z,86.72
2022-11-19T06:19:21.728Z,87.21
2022-11-19T06:21:48.547Z,87.20
2022-11-19T06:24:15.580Z,86.73
2022-11-19T06:26:42.976Z,86.92
2022-11-19T06:29:10.562Z,87.18
2022-11-19T06:31:37.065Z,87.26
2022-11-19T06:34:03.519Z,86.38
2022-11-19T06:36:37.335Z,86.37
2022-11-19T06:39:05.763Z,86.83
2022-11-19T06:41:32.229Z,86.91
2022-11-19T06:43:58.628Z,87.47
2022-11-19T06:46:25.194Z,87.22
2022-11-19T06:48:51.637Z,87.62
2022-11-19T06:51:18.084Z,87.30
2022-11-19T06:53:44.488Z,86.80
2022-11-19T06:56:10.975Z,86.88
2022-11-19T06:58:37.472Z,86.83
2022-11-19T07:01:04.183Z,87.44
2022-11-19T07:03:30.684Z,87.01
2022-11-19T07:05:59.881Z,86.85
2022-11-19T07:08:27.024Z,86.69
2022-11-19T07:10:54.386Z,86.48
2022-11-19T07:13:20.812Z,86.94
2022-11-19T07:15:47.284Z,86.21
2022-11-19T07:18:14.321Z,86.40
2022-11-19T07:20:41.365Z,86.61
2022-11-19T07:23:10.942Z,86.28
2022-11-19T07:25:37.902Z,86.15
2022-11-19T07:28:04.621Z,86.37
2022-11-19T07:30:31.377Z,85.66
2022-11-19T07:32:58.213Z,85.53
2022-11-19T07:35:24.841Z,85.74
2022-11-19T07:37:51.405Z,86.00
2022-11-19T07:40:17.889Z,85.54
2022-11-19T07:42:50.264Z,85.89
2022-11-19T07:45:18.820Z,85.73
2022-11-19T07:47:45.370Z,85.75
2022-11-19T07:50:12.287Z,85.83
2022-11-19T07:52:38.779Z,85.98
2022-11-19T07:55:06.289Z,86.13
2022-11-19T07:57:32.799Z,86.15
2022-11-19T07:59:59.225Z,86.05
2022-11-19T08:02:25.958Z,85.93
2022-11-19T08:04:52.371Z,85.64
2022-11-19T08:07:18.844Z,86.30
2022-11-19T08:09:45.402Z,85.72
2022-11-19T08:12:11.869Z,85.95
2022-11-19T08:14:38.258Z,86.14
2022-11-19T08:17:23.389Z,86.56
2022-11-19T08:19:49.797Z,86.73
2022-11-19T08:22:16.198Z,86.51
2022-11-19T08:24:42.716Z,86.48
2022-11-19T08:27:09.128Z,86.26
2022-11-19T08:29:35.547Z,85.64
2022-11-19T08:32:01.934Z,85.96
2022-11-19T08:34:28.501Z,85.71
2022-11-19T08:36:54.948Z,86.66
2022-11-19T08:39:21.372Z,100.00
2022-11-19T08:42:06.525Z,97.19
2022-11-19T08:44:32.959Z,88.29
2022-11-19T08:46:59.342Z,80.97
2022-11-19T08:49:25.756Z,79.04
2022-11-19T08:51:52.420Z,82.17
2022-11-19T08:54:19.239Z,78.00
2022-11-19T08:56:45.906Z,78.97
2022-11-19T08:59:12.325Z,79.72
2022-11-19T09:01:39.555Z,80.37
2022-11-19T09:04:06.047Z,81.50
2022-11-19T09:06:35.705Z,82.33
2022-11-19T09:09:03.683Z,82.73
2022-11-19T09:11:30.740Z,82.56
2022-11-19T09:13:58.129Z,83.26
2022-11-19T09:16:24.742Z,83.85
2022-11-19T09:18:51.203Z,84.02
2022-11-19T09:21:17.706Z,84.14
2022-11-19T09:23:44.186Z,84.42
2022-11-19T09:26:15.796Z,83.88
2022-11-19T09:28:43.335Z,84.86
2022-11-19T09:31:16.189Z,85.07
2022-11-19T09:33:45.734Z,85.51
2022-11-19T09:36:13.128Z,85.98
2022-11-19T09:38:40.794Z,85.19
2022-11-19T09:41:13.233Z,85.69
2022-11-19T09:44:01.378Z,85.59
2022-11-19T09:46:43.656Z,85.48
2022-11-19T09:49:13.831Z,85.25
2022-11-19T09:51:46.253Z,85.23
2022-11-19T09:54:17.562Z,85.81
2022-11-19T09:56:51.333Z,85.89
2022-11-19T09:59:33.181Z,85.88
2022-11-19T10:01:59.669Z,86.22
2022-11-19T10:04:29.750Z,85.92
2022-11-19T10:07:06.486Z,86.60
2022-11-19T10:10:00.492Z,85.76
2022-11-19T10:12:33.037Z,85.71
2022-11-19T10:15:16.269Z,85.99
2022-11-19T10:18:11.299Z,85.91
2022-11-19T10:21:01.367Z,84.20
2022-11-19T10:24:00.617Z,83.68
2022-11-19T10:26:35.033Z,83.61
2022-11-19T10:29:03.603Z,85.09
2022-11-19T10:31:35.926Z,85.55
2022-11-19T10:34:07.484Z,86.69
2022-11-19T10:36:50.438Z,88.37
2022-11-19T10:39:23.170Z,88.31
2022-11-19T10:41:55.468Z,87.98
2022-11-19T10:44:47.874Z,89.27
2022-11-19T10:47:22.771Z,88.74
2022-11-19T10:49:58.347Z,88.44
2022-11-19T10:52:27.906Z,89.38
2022-11-19T10:55:00.672Z,88.81
2022-11-19T10:57:31.542Z,89.57
2022-11-19T10:59:58.501Z,90.04
2022-11-19T11:02:31.765Z,89.56
2022-11-19T11:05:03.964Z,89.94
2022-11-19T11:07:51.327Z,89.27
2022-11-19T11:10:27.409Z,90.21
2022-11-19T11:13:16.629Z,89.74
2022-11-19T11:15:50.432Z,88.27
2022-11-19T11:18:19.126Z,87.23
2022-11-19T11:20:51.253Z,86.72
2022-11-19T11:23:25.215Z,85.28
2022-11-19T11:25:59.708Z,85.50
2022-11-19T11:28:26.185Z,86.47
2022-11-19T11:30:55.489Z,88.16
2022-11-19T11:33:24.909Z,87.69
2022-11-19T11:35:54.958Z,88.64
2022-11-19T11:38:26.961Z,88.43
2022-11-19T11:44:02.900Z,88.90
2022-11-19T11:46:40.878Z,87.43
2022-11-19T11:49:20.638Z,87.07
2022-11-19T11:51:55.008Z,85.99
2022-11-19T11:54:22.012Z,85.23
2022-11-19T11:56:48.490Z,85.70
2022-11-19T11:59:23.868Z,85.64
2022-11-19T12:02:05.624Z,85.34
2022-11-19T12:04:32.773Z,84.76
2022-11-19T12:07:17.531Z,85.01
2022-11-19T12:09:43.953Z,85.22
2022-11-19T12:12:35.827Z,85.42
2022-11-19T12:15:16.954Z,85.37
2022-11-19T12:17:52.673Z,85.99
2022-11-19T12:20:39.120Z,86.66
2022-11-19T12:23:05.588Z,85.67
2022-11-19T12:25:41.489Z,84.29
2022-11-19T12:28:24.066Z,83.52
2022-11-19T12:31:11.725Z,84.04
2022-11-19T12:34:13.453Z,83.67
2022-11-19T12:37:08.195Z,84.53
2022-11-19T12:40:03.921Z,84.59
2022-11-19T12:42:52.908Z,85.68
2022-11-19T12:45:38.045Z,84.27
2022-11-19T12:48:55.773Z,83.68
2022-11-19T12:51:44.524Z,83.72
2022-11-19T12:54:48.097Z,84.69
2022-11-19T12:57:33.300Z,85.38
2022-11-19T13:00:05.740Z,85.75
2022-11-19T13:02:43.678Z,83.84
2022-11-19T13:05:26.189Z,85.12
2022-11-19T13:07:59.143Z,84.01
2022-11-19T13:10:32.940Z,84.65
2022-11-19T13:13:01.089Z,84.14
2022-11-19T13:15:39.161Z,85.81
2022-11-19T13:18:13.959Z,85.55
2022-11-19T13:21:01.516Z,84.92
2022-11-19T13:23:39.439Z,84.78
2022-11-19T13:26:11.164Z,84.24
2022-11-19T13:28:44.188Z,84.15
2022-11-19T13:31:28.066Z,84.11
2022-11-19T13:34:12.748Z,85.15
2022-11-19T13:36:47.972Z,85.88
2022-11-19T13:39:50.569Z,86.90
2022-11-19T13:42:39.039Z,86.17
2022-11-19T13:45:06.813Z,87.16
2022-11-19T13:48:25.681Z,86.75
2022-11-19T13:50:56.887Z,86.20
2022-11-19T13:53:41.010Z,86.53
2022-11-19T13:56:13.922Z,86.03
2022-11-19T13:58:47.554Z,86.27
2022-11-19T14:01:38.459Z,86.51
2022-11-19T14:04:40.057Z,86.65
2022-11-19T14:07:35.906Z,86.00
2022-11-19T14:10:10.605Z,86.52
2022-11-19T14:12:52.140Z,86.97
2022-11-19T14:15:56.320Z,86.20
2022-11-19T14:18:55.854Z,86.53
2022-11-19T14:21:43.847Z,87.03
2022-11-19T14:24:44.114Z,86.80
2022-11-19T14:27:34.314Z,87.05
2022-11-19T14:30:12.410Z,87.14
2022-11-19T14:32:48.606Z,86.65
2022-11-19T14:35:27.097Z,87.45
2022-11-19T14:38:13.553Z,86.65
2022-11-19T14:40:43.649Z,87.12
2022-11-19T14:43:35.167Z,87.00
2022-11-19T14:46:10.404Z,85.48
2022-11-19T14:48:39.914Z,85.42
2022-11-19T14:51:10.719Z,85.92
2022-11-19T14:53:48.333Z,85.83
2022-11-19T14:56:17.077Z,85.99
2022-11-19T14:58:53.704Z,85.71
2022-11-19T15:01:21.862Z,84.97
2022-11-19T15:03:53.470Z,85.24
2022-11-19T15:06:20.826Z,85.13
2022-11-19T15:08:58.957Z,85.69
2022-11-19T15:11:57.424Z,84.61
2022-11-19T15:14:29.836Z,84.10
2022-11-19T15:16:59.482Z,84.56
2022-11-19T15:19:38.789Z,84.95
2022-11-19T15:22:26.636Z,85.98
2022-11-19T15:25:09.927Z,85.96
2022-11-19T15:27:52.245Z,85.50
2022-11-19T15:30:42.258Z,85.68
2022-11-19T15:33:08.695Z,85.37
2022-11-19T15:36:02.931Z,85.24
2022-11-19T15:38:36.973Z,85.63
2022-11-19T15:41:05.011Z,85.72
2022-11-19T15:43:40.100Z,86.12
2022-11-19T15:46:21.596Z,85.78
2022-11-19T15:49:04.549Z,85.14
2022-11-19T15:51:53.207Z,84.68
2022-11-19T15:54:26.750Z,85.31
2022-11-19T15:56:57.998Z,85.36
2022-11-19T15:59:25.326Z,85.41
2022-11-19T16:02:03.754Z,85.60
2022-11-19T16:04:36.360Z,85.19
2022-11-19T16:07:05.816Z,85.17
2022-11-19T16:09:33.118Z,84.87
2022-11-19T16:12:19.837Z,85.11
2022-11-19T16:15:10.061Z,85.76
2022-11-19T16:17:46.098Z,85.69
2022-11-19T16:20:12.579Z,86.39
2022-11-19T16:22:53.399Z,86.44
2022-11-19T16:25:29.231Z,85.81
2022-11-19T16:27:58.270Z,86.46
2022-11-19T16:30:27.909Z,88.52
2022-11-19T16:32:59.159Z,88.74
2022-11-19T16:35:31.566Z,88.47
2022-11-19T16:38:00.145Z,89.59
2022-11-19T16:40:48.113Z,88.47
2022-11-19T16:43:15.048Z,89.21
2022-11-19T16:45:44.861Z,88.86
2022-11-19T16:48:51.827Z,88.89
2022-11-19T16:51:52.642Z,88.80
2022-11-19T16:54:48.581Z,88.74
2022-11-19T16:57:19.681Z,88.90
2022-11-19T16:59:52.732Z,87.70
2022-11-19T17:02:21.677Z,87.07
2022-11-19T17:04:50.720Z,87.27
2022-11-19T17:07:24.569Z,86.55
2022-11-19T17:10:08.971Z,86.16
2022-11-19T17:12:37.100Z,86.39
2022-11-19T17:15:42.901Z,85.84
2022-11-19T17:18:27.229Z,85.59
2022-11-19T17:20:58.857Z,85.10
2022-11-19T17:23:28.248Z,85.34
2022-11-19T17:26:00.017Z,85.15
2022-11-19T17:28:35.919Z,85.21
2022-11-19T17:31:06.299Z,85.76
2022-11-19T17:33:36.579Z,84.82
2022-11-19T17:36:03.561Z,84.55
2022-11-19T17:38:32.276Z,85.07
2022-11-19T17:41:01.236Z,85.35
2022-11-19T17:43:46.389Z,84.60
2022-11-19T17:46:12.852Z,84.33
2022-11-19T17:48:41.136Z,84.53
2022-11-19T17:51:11.732Z,84.35
2022-11-19T17:53:38.129Z,84.52
2022-11-19T17:56:05.705Z,84.23
2022-11-19T17:58:32.177Z,84.95
2022-11-19T18:00:58.571Z,84.76
2022-11-19T18:03:24.994Z,85.37
2022-11-19T18:05:51.589Z,85.16
2022-11-19T18:08:18.158Z,85.55
2022-11-19T18:10:47.323Z,86.16
2022-11-19T18:13:18.951Z,85.58
2022-11-19T18:15:45.371Z,86.11
2022-11-19T18:18:11.772Z,85.78
2022-11-19T18:20:38.372Z,85.66
2022-11-19T18:23:05.021Z,85.91
2022-11-19T18:25:31.630Z,85.54
2022-11-19T18:27:58.037Z,85.07
2022-11-19T18:30:24.607Z,85.77
2022-11-19T18:32:51.078Z,86.40
2022-11-19T18:35:19.723Z,86.96
2022-11-19T18:37:46.547Z,87.27
2022-11-19T18:40:14.564Z,86.47
2022-11-19T18:43:00.662Z,86.28
2022-11-19T18:45:27.412Z,86.02
2022-11-19T18:47:53.833Z,85.77
2022-11-19T18:50:20.316Z,85.85
2022-11-19T18:52:46.801Z,85.32
2022-11-19T18:55:13.314Z,84.94
2022-11-19T18:57:39.774Z,84.71
2022-11-19T19:00:07.198Z,84.62
2022-11-19T19:02:35.810Z,84.42
2022-11-19T19:05:02.660Z,85.13
2022-11-19T19:07:29.082Z,85.68
2022-11-19T19:09:55.681Z,85.68
2022-11-19T19:12:22.263Z,85.62
2022-11-19T19:14:51.440Z,85.63
2022-11-19T19:17:18.555Z,84.10
2022-11-19T19:19:45.318Z,84.28
2022-11-19T19:22:11.909Z,83.91
2022-11-19T19:24:38.454Z,84.02
2022-11-19T19:27:05.309Z,83.81
2022-11-19T19:29:31.766Z,84.35
2022-11-19T19:31:58.493Z,84.37
2022-11-19T19:34:25.068Z,84.83
2022-11-19T19:36:53.640Z,85.21
2022-11-19T19:39:20.565Z,85.27
2022-11-19T19:41:47.180Z,85.81
2022-11-19T19:44:13.594Z,85.30
2022-11-19T19:46:40.164Z,84.21
2022-11-19T19:49:06.664Z,83.07
2022-11-19T19:51:33.088Z,83.30
2022-11-19T19:54:00.137Z,83.74
2022-11-19T19:56:29.329Z,83.08
2022-11-19T19:58:57.219Z,82.79
2022-11-19T20:01:26.418Z,83.38
2022-11-19T20:03:54.816Z,83.04
2022-11-19T20:06:23.509Z,83.43
2022-11-19T20:08:50.403Z,83.69
2022-11-19T20:11:19.457Z,82.19
2022-11-19T20:13:47.562Z,81.85
2022-11-19T20:16:21.777Z,81.50
2022-11-19T20:18:49.920Z,81.80
2022-11-19T20:21:19.868Z,82.06
2022-11-19T20:23:47.109Z,81.88
2022-11-19T20:26:22.150Z,82.31
2022-11-19T20:28:53.538Z,82.33
2022-11-19T20:31:20.650Z,81.94
2022-11-19T20:33:52.136Z,82.43
2022-11-19T20:36:18.655Z,83.55
2022-11-19T20:38:47.846Z,83.69
2022-11-19T20:41:34.481Z,84.09
2022-11-19T20:44:20.652Z,84.48
2022-11-19T20:46:52.690Z,83.97
2022-11-19T20:49:21.630Z,84.76
2022-11-19T20:51:48.381Z,85.04
2022-11-19T20:54:15.335Z,84.35
2022-11-19T20:56:42.183Z,84.04
2022-11-19T20:59:09.717Z,84.16
2022-11-19T21:01:38.760Z,84.46
2022-11-19T21:04:05.478Z,84.95
2022-11-19T21:06:32.434Z,84.39
2022-11-19T21:08:58.898Z,84.79
2022-11-19T21:11:25.456Z,84.60
2022-11-19T21:13:52.591Z,83.95
2022-11-19T21:16:24.655Z,84.75
2022-11-19T21:18:52.327Z,84.64
2022-11-19T21:21:20.962Z,84.26
2022-11-19T21:23:47.421Z,84.83
2022-11-19T21:26:19.810Z,83.95
2022-11-19T21:28:49.035Z,84.04
2022-11-19T21:31:16.857Z,84.17
2022-11-19T21:33:43.436Z,85.11
2022-11-19T21:36:10.188Z,85.28
2022-11-19T21:38:36.580Z,85.18
2022-11-19T21:41:03.714Z,84.57
2022-11-19T21:43:30.883Z,84.76
2022-11-19T21:45:57.566Z,83.39
2022-11-19T21:48:25.255Z,83.60
2022-11-19T21:50:52.606Z,83.64
2022-11-19T21:53:19.323Z,84.07
2022-11-19T21:55:46.383Z,83.96
2022-11-19T21:58:14.908Z,84.32
2022-11-19T22:00:42.384Z,83.63
2022-11-19T22:03:08.848Z,83.83
2022-11-19T22:05:35.615Z,83.93
2022-11-19T22:08:02.310Z,84.34
2022-11-19T22:10:29.719Z,84.05
2022-11-19T22:12:59.340Z,83.49
2022-11-19T22:15:26.895Z,83.49
2022-11-19T22:17:53.845Z,83.40
2022-11-19T22:20:20.360Z,83.52
2022-11-19T22:22:46.907Z,83.50
2022-11-19T22:25:14.337Z,83.52
2022-11-19T22:27:41.601Z,84.23
2022-11-19T22:30:10.243Z,84.63
2022-11-19T22:32:37.056Z,84.51
2022-11-19T22:35:04.801Z,84.48
2022-11-19T22:37:31.883Z,84.55
2022-11-19T22:39:58.391Z,83.98
2022-11-19T22:42:24.843Z,84.73
2022-11-19T22:44:51.592Z,83.53
2022-11-19T22:47:18.037Z,83.94
2022-11-19T22:49:44.530Z,83.62
2022-11-19T22:52:10.961Z,83.71
2022-11-19T22:54:41.448Z,84.65
2022-11-19T22:57:08.381Z,84.69
2022-11-19T22:59:34.946Z,84.46
2022-11-19T23:02:01.653Z,84.59
2022-11-19T23:04:28.926Z,84.04
2022-11-19T23:06:55.672Z,83.66
2022-11-19T23:09:22.576Z,84.25
2022-11-19T23:12:08.091Z,84.86
2022-11-19T23:14:34.469Z,84.58
2022-11-19T23:17:00.972Z,83.70
2022-11-19T23:19:27.367Z,83.79
2022-11-19T23:21:53.795Z,83.53
2022-11-19T23:24:20.332Z,83.50
2022-11-19T23:26:46.875Z,84.31
2022-11-19T23:29:13.345Z,84.42
2022-11-19T23:31:40.585Z,84.24
2022-11-19T23:34:07.835Z,84.24
2022-11-19T23:36:37.439Z,84.10
2022-11-19T23:39:05.387Z,84.50
2022-11-19T23:41:33.667Z,84.81
2022-11-19T23:44:00.962Z,85.94
2022-11-19T23:46:29.875Z,86.80
2022-11-19T23:48:58.045Z,86.71
2022-11-19T23:51:35.584Z,86.40
2022-11-19T23:54:02.784Z,86.97
2022-11-19T23:56:31.585Z,86.79
2022-11-19T23:59:00.450Z,86.11
